Time;durP1;ratioP1;P1;durP2;ratioP2;P2;SDS_P1;SDS_P2;PMS_P1;PMS_P2;Temp;Humidity;BMP_temperature;BMP_pressure;BME280_temperature;BME280_humidity;BME280_pressure;Samples;Min_cycle;Max_cycle;Signal;HPM_P1;HPM_P2
2021/08/03 00:00:35;;;;;;;2.10;1.90;;;16.80;99.90;;;;;;4937353;28;21217;-71
2021/08/03 00:03:06;;;;;;;2.00;1.90;;;16.80;99.90;;;;;;4935139;28;20635;-71
2021/08/03 00:05:36;;;;;;;2.30;1.77;;;16.80;99.90;;;;;;4937387;28;20657;-71
2021/08/03 00:08:16;;;;;;;2.37;1.90;;;16.80;99.90;;;;;;4940553;28;20632;-71
2021/08/03 00:10:42;;;;;;;2.53;1.97;;;16.80;99.90;;;;;;4935914;28;20622;-71
2021/08/03 00:13:09;;;;;;;1.90;1.60;;;16.80;99.90;;;;;;4956289;28;20754;-71
2021/08/03 00:15:34;;;;;;;3.27;1.90;;;16.80;99.90;;;;;;4940437;28;21245;-71
2021/08/03 00:18:01;;;;;;;2.07;1.60;;;16.80;99.90;;;;;;4941739;28;20658;-71
2021/08/03 00:20:27;;;;;;;2.20;2.00;;;16.90;99.90;;;;;;4942284;28;20210;-71
2021/08/03 00:23:02;;;;;;;2.10;1.97;;;16.80;99.90;;;;;;4931518;28;20639;-71
2021/08/03 00:25:31;;;;;;;2.13;1.90;;;16.90;99.90;;;;;;4954299;28;20188;-71
2021/08/03 00:27:57;;;;;;;1.77;1.67;;;16.90;99.90;;;;;;4941137;28;22090;-71
2021/08/03 00:30:24;;;;;;;2.20;2.00;;;16.90;99.90;;;;;;4936465;28;20685;-71
2021/08/03 00:32:51;;;;;;;2.07;1.87;;;16.90;99.90;;;;;;4938757;28;20651;-71
2021/08/03 00:35:16;;;;;;;1.90;1.50;;;16.80;99.90;;;;;;4938153;28;20709;-71
2021/08/03 00:37:48;;;;;;;2.80;1.67;;;16.80;99.90;;;;;;4942812;28;20651;-71
2021/08/03 00:40:16;;;;;;;2.00;1.80;;;16.90;99.90;;;;;;4939085;28;20203;-71
2021/08/03 00:42:42;;;;;;;1.67;1.53;;;16.80;99.90;;;;;;4940151;28;20721;-71
2021/08/03 00:45:08;;;;;;;2.07;1.70;;;16.90;99.90;;;;;;4941403;28;20642;-71
2021/08/03 00:47:36;;;;;;;2.30;1.70;;;16.80;99.90;;;;;;4929839;28;21009;-72
2021/08/03 00:50:02;;;;;;;1.90;1.80;;;16.80;99.90;;;;;;4938441;28;20677;-72
2021/08/03 00:52:31;;;;;;;2.80;1.50;;;16.80;99.90;;;;;;4937085;28;20653;-71
2021/08/03 00:54:56;;;;;;;2.30;1.70;;;16.80;99.90;;;;;;4935548;28;20671;-71
2021/08/03 00:57:22;;;;;;;3.43;1.90;;;16.80;99.90;;;;;;4941449;28;20658;-71
2021/08/03 00:59:50;;;;;;;4.63;1.90;;;16.80;99.90;;;;;;4941969;28;20299;-71
2021/08/03 01:02:18;;;;;;;2.03;1.73;;;16.80;99.90;;;;;;4934372;28;20237;-71
2021/08/03 01:04:44;;;;;;;3.47;1.80;;;16.80;99.90;;;;;;4940650;28;20619;-71
2021/08/03 01:07:43;;;;;;;2.63;1.73;;;16.80;99.90;;;;;;4936332;28;20794;-71
2021/08/03 01:10:55;;;;;;;2.03;1.67;;;16.80;99.90;;;;;;4938404;28;20714;-71
2021/08/03 01:13:37;;;;;;;1.63;1.53;;;16.80;99.90;;;;;;4937410;28;20658;-71
2021/08/03 01:16:28;;;;;;;2.20;2.00;;;16.70;99.90;;;;;;4939721;28;21027;-71
2021/08/03 01:19:18;;;;;;;2.60;2.20;;;16.70;99.90;;;;;;4937133;28;20666;-71
2021/08/03 01:21:53;;;;;;;1.93;1.70;;;16.70;99.90;;;;;;4940469;28;20984;-71
2021/08/03 01:24:24;;;;;;;3.80;2.27;;;16.70;99.90;;;;;;4938482;28;20681;-71
2021/08/03 01:27:08;;;;;;;3.33;2.10;;;16.80;99.90;;;;;;4943381;28;20786;-71
2021/08/03 01:29:34;;;;;;;1.80;1.70;;;16.80;99.90;;;;;;4932648;28;20979;-71
2021/08/03 01:32:11;;;;;;;2.10;1.90;;;16.70;99.90;;;;;;4934226;28;21166;-71
2021/08/03 01:34:41;;;;;;;2.27;2.03;;;16.80;99.90;;;;;;4940030;28;20199;-71
2021/08/03 01:37:07;;;;;;;2.50;2.27;;;16.70;99.90;;;;;;4938050;28;21306;-71
2021/08/03 01:39:55;;;;;;;2.30;2.10;;;16.70;99.90;;;;;;4938733;28;20709;-71
2021/08/03 01:42:25;;;;;;;5.30;1.80;;;16.80;99.90;;;;;;4947243;28;20802;-71
2021/08/03 01:44:56;;;;;;;1.90;1.80;;;16.80;99.90;;;;;;4939705;28;20776;-72
2021/08/03 01:47:25;;;;;;;5.10;2.77;;;16.80;99.90;;;;;;4943327;28;20594;-71
2021/08/03 01:49:55;;;;;;;3.90;2.33;;;16.70;99.90;;;;;;4937221;28;20689;-71
2021/08/03 01:52:23;;;;;;;2.93;2.33;;;16.80;99.90;;;;;;4942752;28;20698;-71
2021/08/03 01:54:49;;;;;;;2.63;2.43;;;16.70;99.90;;;;;;4942077;28;20730;-71
2021/08/03 01:57:18;;;;;;;2.37;2.17;;;16.70;99.90;;;;;;4945846;28;20629;-71
2021/08/03 01:59:46;;;;;;;2.93;2.30;;;16.70;99.90;;;;;;4936357;28;20748;-71
2021/08/03 02:02:13;;;;;;;2.73;1.77;;;16.70;99.90;;;;;;4944057;28;20643;-70
2021/08/03 02:04:41;;;;;;;2.50;2.20;;;16.70;99.90;;;;;;4943989;29;20704;-70
2021/08/03 02:07:07;;;;;;;2.57;1.93;;;16.70;99.90;;;;;;4944696;28;20678;-71
2021/08/03 02:09:35;;;;;;;2.57;2.37;;;16.70;99.90;;;;;;4936023;28;21313;-71
2021/08/03 02:12:00;;;;;;;2.20;2.00;;;16.70;99.90;;;;;;4941793;28;20670;-71
2021/08/03 02:14:33;;;;;;;3.10;2.30;;;16.70;99.90;;;;;;4943782;28;20627;-71
2021/08/03 02:17:00;;;;;;;5.00;1.80;;;16.70;99.90;;;;;;4949012;29;20199;-71
2021/08/03 02:19:28;;;;;;;3.47;2.27;;;16.70;99.90;;;;;;4933725;28;20754;-71
2021/08/03 02:21:54;;;;;;;2.13;1.93;;;16.70;99.90;;;;;;4939571;28;21237;-71
2021/08/03 02:24:20;;;;;;;3.20;2.20;;;16.70;99.90;;;;;;4946450;29;20614;-71
2021/08/03 02:26:50;;;;;;;3.33;2.27;;;16.70;99.90;;;;;;4944553;28;20678;-71
2021/08/03 02:29:16;;;;;;;2.37;2.17;;;16.70;99.90;;;;;;4941182;28;20215;-71
2021/08/03 02:31:55;;;;;;;3.03;2.33;;;16.70;99.90;;;;;;4946290;28;21004;-71
2021/08/03 02:34:44;;;;;;;2.70;2.37;;;16.70;99.90;;;;;;4939184;29;20192;-71
2021/08/03 02:37:14;;;;;;;4.00;2.57;;;16.70;99.90;;;;;;4944234;29;20999;-71
2021/08/03 02:39:40;;;;;;;2.47;2.13;;;16.70;99.90;;;;;;4942601;28;20706;-71
2021/08/03 02:42:08;;;;;;;2.23;2.03;;;16.70;99.90;;;;;;4944566;28;20758;-71
2021/08/03 02:44:34;;;;;;;2.73;2.53;;;16.60;99.90;;;;;;4945380;29;20677;-71
2021/08/03 02:47:07;;;;;;;2.83;2.63;;;16.60;99.90;;;;;;4946027;29;20630;-71
2021/08/03 02:49:46;;;;;;;3.73;2.53;;;16.60;99.90;;;;;;4951703;28;20647;-71
2021/08/03 02:52:13;;;;;;;4.17;2.80;;;16.60;99.90;;;;;;4942440;28;21050;-71
2021/08/03 02:54:47;;;;;;;4.00;2.70;;;16.60;99.90;;;;;;4943155;29;20693;-71
2021/08/03 02:57:18;;;;;;;2.53;2.33;;;16.60;99.90;;;;;;4940430;29;20618;-73
2021/08/03 02:59:47;;;;;;;4.10;2.63;;;16.60;99.90;;;;;;4934701;28;20650;-71
2021/08/03 03:02:17;;;;;;;3.47;2.70;;;16.60;99.90;;;;;;4938468;28;20638;-71
2021/08/03 03:04:59;;;;;;;3.30;3.00;;;16.50;99.90;;;;;;4943302;29;20683;-70
2021/08/03 03:07:34;;;;;;;3.97;2.67;;;16.50;99.90;;;;;;4942762;29;21090;-71
2021/08/03 03:10:07;;;;;;;3.80;2.73;;;16.50;99.90;;;;;;4945770;28;20657;-71
2021/08/03 03:12:36;;;;;;;5.10;3.17;;;16.40;99.90;;;;;;4944191;28;20627;-71
2021/08/03 03:15:05;;;;;;;3.03;2.57;;;16.40;99.90;;;;;;4942706;29;20619;-71
2021/08/03 03:17:34;;;;;;;3.47;2.80;;;16.40;99.90;;;;;;4946085;29;21260;-71
2021/08/03 03:20:08;;;;;;;3.07;2.57;;;16.40;99.90;;;;;;4937542;28;20658;-71
2021/08/03 03:22:41;;;;;;;3.70;3.00;;;16.40;99.90;;;;;;4941526;28;20635;-71
2021/08/03 03:25:08;;;;;;;3.23;2.80;;;16.40;99.90;;;;;;4957161;28;20623;-71
2021/08/03 03:27:38;;;;;;;2.53;2.33;;;16.40;99.90;;;;;;4951719;28;20695;-71
2021/08/03 03:30:14;;;;;;;3.03;2.70;;;16.40;99.90;;;;;;4939544;28;20773;-71
2021/08/03 03:32:40;;;;;;;5.07;2.93;;;16.40;99.90;;;;;;4940702;28;20671;-71
2021/08/03 03:35:07;;;;;;;3.30;2.30;;;16.40;99.90;;;;;;4940448;28;20619;-72
2021/08/03 03:37:33;;;;;;;3.10;2.43;;;16.40;99.90;;;;;;4942050;28;21225;-71
2021/08/03 03:40:02;;;;;;;3.57;2.93;;;16.40;99.90;;;;;;4940106;28;20667;-71
2021/08/03 03:42:31;;;;;;;3.17;2.30;;;16.40;99.90;;;;;;4944303;28;21233;-71
2021/08/03 03:44:58;;;;;;;2.80;2.60;;;16.40;99.90;;;;;;4945065;28;20618;-71
2021/08/03 03:47:31;;;;;;;3.07;2.60;;;16.30;99.90;;;;;;4943959;29;21279;-71
2021/08/03 03:50:13;;;;;;;5.83;3.30;;;16.30;99.90;;;;;;4941214;28;20658;-71
2021/08/03 03:53:05;;;;;;;2.77;2.57;;;16.30;99.90;;;;;;4941767;28;20654;-71
2021/08/03 03:55:32;;;;;;;2.93;2.20;;;16.30;99.90;;;;;;4929076;29;21276;-71
2021/08/03 03:58:00;;;;;;;2.90;2.70;;;16.30;99.90;;;;;;4943772;29;20660;-71
2021/08/03 04:00:29;;;;;;;4.40;2.30;;;16.30;99.90;;;;;;4936095;28;21251;-71
2021/08/03 04:02:56;;;;;;;2.87;2.57;;;16.30;99.90;;;;;;4940941;28;20643;-72
2021/08/03 04:05:24;;;;;;;2.63;2.43;;;16.30;99.90;;;;;;4943919;28;20671;-71
2021/08/03 04:07:49;;;;;;;3.33;2.20;;;16.30;99.90;;;;;;4943628;29;20623;-71
2021/08/03 04:10:17;;;;;;;3.67;3.13;;;16.30;99.90;;;;;;4932647;28;20713;-71
2021/08/03 04:12:46;;;;;;;4.03;2.83;;;16.30;99.90;;;;;;4934206;28;20227;-72
2021/08/03 04:15:13;;;;;;;3.10;2.80;;;16.30;99.90;;;;;;4940263;29;20622;-71
2021/08/03 04:17:39;;;;;;;2.73;2.10;;;16.30;99.90;;;;;;4958774;28;21182;-71
2021/08/03 04:20:05;;;;;;;3.00;2.53;;;16.30;99.90;;;;;;4941589;28;20650;-71
2021/08/03 04:22:32;;;;;;;5.57;2.70;;;16.30;99.90;;;;;;4944707;28;20248;-71
2021/08/03 04:25:00;;;;;;;2.80;2.37;;;16.30;99.90;;;;;;4941977;28;20338;-71
2021/08/03 04:27:26;;;;;;;2.53;2.33;;;16.30;99.90;;;;;;4940153;28;20666;-71
2021/08/03 04:29:51;;;;;;;3.70;2.37;;;16.30;99.90;;;;;;4940838;28;20654;-71
2021/08/03 04:32:22;;;;;;;2.63;2.40;;;16.30;99.90;;;;;;4940694;28;20325;-71
2021/08/03 04:34:48;;;;;;;4.73;2.30;;;16.30;99.90;;;;;;4938243;28;20291;-71
2021/08/03 04:37:13;;;;;;;3.43;2.37;;;16.30;99.90;;;;;;4939078;28;20710;-71
2021/08/03 04:39:39;;;;;;;4.90;2.57;;;16.30;99.90;;;;;;4943806;28;20317;-71
2021/08/03 04:42:04;;;;;;;2.40;2.20;;;16.30;99.90;;;;;;4934549;28;20573;-71
2021/08/03 04:44:30;;;;;;;2.80;2.50;;;16.30;99.90;;;;;;4943486;28;20211;-71
2021/08/03 04:46:58;;;;;;;3.40;2.13;;;16.30;99.90;;;;;;4947361;28;20184;-71
2021/08/03 04:49:23;;;;;;;3.23;2.70;;;16.30;99.90;;;;;;4946142;28;20246;-71
2021/08/03 04:51:51;;;;;;;3.27;2.17;;;16.40;99.90;;;;;;4941576;28;20663;-71
2021/08/03 04:54:18;;;;;;;2.47;2.27;;;16.40;99.90;;;;;;4943915;29;20199;-71
2021/08/03 04:56:48;;;;;;;3.23;2.10;;;16.40;99.90;;;;;;4942079;28;20638;-71
2021/08/03 04:59:16;;;;;;;2.10;1.87;;;16.40;99.90;;;;;;4946468;28;20694;-71
2021/08/03 05:01:42;;;;;;;2.47;2.00;;;16.40;99.90;;;;;;4941749;28;20694;-72
2021/08/03 05:04:10;;;;;;;2.20;1.93;;;16.40;99.90;;;;;;4942833;28;21029;-72
2021/08/03 05:06:36;;;;;;;2.97;2.33;;;16.40;99.90;;;;;;4945496;29;20198;-71
2021/08/03 05:09:02;;;;;;;2.50;2.30;;;16.40;99.90;;;;;;4940800;28;20658;-72
2021/08/03 05:11:27;;;;;;;3.83;2.37;;;16.40;99.90;;;;;;4934214;28;20671;-71
2021/08/03 05:13:53;;;;;;;4.57;2.47;;;16.50;99.90;;;;;;4944169;28;20258;-71
2021/08/03 05:16:20;;;;;;;2.83;2.53;;;16.50;99.90;;;;;;4945617;28;20210;-71
2021/08/03 05:18:49;;;;;;;2.60;2.30;;;16.50;99.90;;;;;;4940347;28;20223;-71
2021/08/03 05:21:18;;;;;;;3.33;2.10;;;16.50;99.90;;;;;;4936251;28;20614;-71
2021/08/03 05:23:45;;;;;;;2.83;2.30;;;16.50;99.90;;;;;;4940774;28;21180;-70
2021/08/03 05:26:11;;;;;;;3.53;2.70;;;16.50;99.90;;;;;;4943140;28;21257;-71
2021/08/03 05:28:36;;;;;;;2.63;2.37;;;16.60;99.90;;;;;;4941838;28;20651;-70
2021/08/03 05:31:02;;;;;;;3.53;2.13;;;16.60;99.90;;;;;;4944401;28;20218;-70
2021/08/03 05:33:28;;;;;;;2.40;2.20;;;16.60;99.90;;;;;;4928983;28;20345;-69
2021/08/03 05:35:53;;;;;;;2.40;2.20;;;16.60;99.90;;;;;;4935577;28;20195;-70
2021/08/03 05:38:21;;;;;;;4.40;2.80;;;16.70;99.90;;;;;;4937831;28;20215;-70
2021/08/03 05:40:47;;;;;;;2.97;2.20;;;16.60;99.90;;;;;;4935840;28;20226;-70
2021/08/03 05:43:12;;;;;;;2.50;2.30;;;16.70;99.90;;;;;;4928291;28;20742;-70
2021/08/03 05:45:38;;;;;;;2.67;2.10;;;16.70;99.90;;;;;;4936546;28;20196;-70
2021/08/03 05:48:04;;;;;;;2.43;2.17;;;16.80;99.90;;;;;;4935922;28;20239;-70
2021/08/03 05:50:30;;;;;;;2.10;2.00;;;16.80;99.90;;;;;;4935827;28;20192;-70
2021/08/03 05:52:55;;;;;;;4.30;2.47;;;16.80;99.90;;;;;;4930155;28;21770;-70
2021/08/03 05:55:21;;;;;;;3.03;1.73;;;16.80;99.90;;;;;;4942326;28;20206;-70
2021/08/03 05:57:46;;;;;;;3.73;1.90;;;16.80;99.90;;;;;;4943174;29;20282;-71
2021/08/03 06:00:13;;;;;;;2.20;2.00;;;16.80;99.90;;;;;;4952474;28;20571;-71
2021/08/03 06:02:38;;;;;;;2.60;1.70;;;16.80;99.90;;;;;;4932739;28;20230;-71
2021/08/03 06:05:04;;;;;;;2.10;1.90;;;16.80;99.90;;;;;;4927499;28;20626;-71
2021/08/03 06:07:38;;;;;;;2.07;1.50;;;16.90;99.90;;;;;;4938551;28;20184;-70
2021/08/03 06:10:05;;;;;;;3.73;1.60;;;16.90;99.90;;;;;;4941084;28;20658;-71
2021/08/03 06:12:34;;;;;;;2.20;1.73;;;16.90;99.90;;;;;;4937914;28;20658;-73
2021/08/03 06:15:02;;;;;;;1.80;1.70;;;17.00;99.90;;;;;;4936297;28;20642;-71
2021/08/03 06:17:38;;;;;;;2.50;1.57;;;17.10;99.90;;;;;;4932496;28;20627;-72
2021/08/03 06:20:06;;;;;;;2.43;1.70;;;17.10;99.90;;;;;;4948280;29;20650;-73
2021/08/03 06:22:37;;;;;;;1.90;1.40;;;17.10;99.90;;;;;;4947835;28;20631;-72
2021/08/03 06:25:04;;;;;;;2.53;1.60;;;17.20;99.90;;;;;;4950407;28;20630;-72
2021/08/03 06:27:30;;;;;;;1.90;1.60;;;17.20;99.90;;;;;;4942575;28;20619;-72
2021/08/03 06:29:59;;;;;;;1.90;1.67;;;17.20;99.90;;;;;;4947090;28;21464;-72
2021/08/03 06:32:25;;;;;;;3.70;1.50;;;17.20;99.90;;;;;;4942157;28;20639;-71
2021/08/03 06:34:51;;;;;;;1.90;1.70;;;17.30;99.90;;;;;;4942349;29;20625;-72
2021/08/03 06:37:16;;;;;;;1.80;1.60;;;17.30;99.90;;;;;;4938720;28;20614;-70
2021/08/03 06:39:44;;;;;;;2.30;1.90;;;17.30;99.90;;;;;;4936406;28;20220;-72
2021/08/03 06:42:24;;;;;;;4.97;1.73;;;17.20;99.90;;;;;;4935660;28;20278;-69
2021/08/03 06:44:57;;;;;;;1.87;1.77;;;17.30;99.90;;;;;;4953393;28;21206;-71
2021/08/03 06:47:26;;;;;;;2.77;1.80;;;17.30;99.90;;;;;;4940916;29;20595;-71
2021/08/03 06:49:53;;;;;;;3.37;1.77;;;17.40;99.90;;;;;;4943765;28;20659;-71
2021/08/03 06:52:19;;;;;;;4.20;2.30;;;17.40;99.90;;;;;;4939914;28;20682;-71
2021/08/03 06:54:54;;;;;;;2.13;1.90;;;17.50;99.90;;;;;;4947849;29;20633;-71
2021/08/03 06:57:22;;;;;;;1.83;1.73;;;17.50;99.90;;;;;;4946042;29;20674;-71
2021/08/03 06:59:58;;;;;;;2.40;1.80;;;17.60;99.90;;;;;;4957403;28;21009;-71
2021/08/03 07:02:30;;;;;;;3.40;1.97;;;17.60;99.90;;;;;;4946020;28;20725;-71
2021/08/03 07:05:13;;;;;;;3.30;1.93;;;17.70;99.90;;;;;;4948515;29;21193;-72
2021/08/03 07:07:39;;;;;;;2.80;1.90;;;17.70;99.90;;;;;;4946695;29;21117;-72
2021/08/03 07:10:06;;;;;;;3.30;1.80;;;17.80;99.90;;;;;;4945841;28;20650;-72
2021/08/03 07:12:35;;;;;;;2.73;1.80;;;17.80;99.90;;;;;;4940885;28;20639;-71
2021/08/03 07:15:01;;;;;;;2.40;2.20;;;17.90;99.90;;;;;;4948300;28;20614;-72
2021/08/03 07:17:30;;;;;;;3.73;2.17;;;18.00;99.90;;;;;;4945930;28;20630;-72
2021/08/03 07:20:01;;;;;;;1.93;1.83;;;18.10;99.90;;;;;;4944539;28;20734;-71
2021/08/03 07:22:28;;;;;;;2.60;2.40;;;18.10;99.90;;;;;;4945644;28;20718;-71
2021/08/03 07:24:57;;;;;;;2.60;2.03;;;18.20;99.90;;;;;;4948159;29;20607;-72
2021/08/03 07:27:22;;;;;;;3.00;2.40;;;18.20;99.90;;;;;;4943243;29;20611;-71
2021/08/03 07:29:48;;;;;;;2.77;2.50;;;18.20;99.90;;;;;;4947155;28;20631;-71
2021/08/03 07:32:14;;;;;;;3.40;2.30;;;18.30;99.90;;;;;;4945215;28;20239;-71
2021/08/03 07:34:41;;;;;;;2.83;2.10;;;18.40;99.90;;;;;;4944502;28;20219;-71
2021/08/03 07:37:07;;;;;;;2.53;2.33;;;18.50;99.90;;;;;;4946600;29;20223;-71
2021/08/03 07:39:34;;;;;;;2.13;1.93;;;18.60;99.90;;;;;;4945500;28;20676;-72
2021/08/03 07:42:00;;;;;;;2.17;1.97;;;18.60;99.90;;;;;;4946435;28;20630;-72
2021/08/03 07:44:25;;;;;;;2.40;2.20;;;18.60;99.90;;;;;;4953000;28;20616;-71
2021/08/03 07:46:51;;;;;;;1.90;1.80;;;18.60;99.90;;;;;;4943429;28;20187;-72
2021/08/03 07:49:19;;;;;;;2.47;1.67;;;18.60;99.90;;;;;;4947932;28;20273;-72
2021/08/03 07:51:48;;;;;;;1.60;1.10;;;18.50;99.90;;;;;;4943713;28;20315;-72
2021/08/03 07:54:14;;;;;;;1.87;1.47;;;18.50;99.90;;;;;;4943547;28;20719;-72
2021/08/03 07:56:42;;;;;;;1.40;1.30;;;18.50;99.90;;;;;;4936370;28;20635;-71
2021/08/03 07:59:08;;;;;;;1.50;1.40;;;18.60;99.90;;;;;;4944153;28;21274;-72
2021/08/03 08:01:34;;;;;;;1.17;1.00;;;18.70;99.90;;;;;;4934139;28;20655;-71
2021/08/03 08:04:02;;;;;;;1.43;1.30;;;18.60;99.90;;;;;;4930880;28;20247;-71
2021/08/03 08:06:28;;;;;;;3.73;1.60;;;18.70;99.90;;;;;;4933693;28;20629;-72
2021/08/03 08:08:53;;;;;;;1.60;1.50;;;18.80;99.90;;;;;;4936339;28;20654;-71
2021/08/03 08:11:19;;;;;;;1.47;1.30;;;18.90;99.90;;;;;;4936013;28;20656;-72
2021/08/03 08:13:45;;;;;;;1.40;1.30;;;18.90;99.90;;;;;;4944222;28;20188;-72
2021/08/03 08:16:10;;;;;;;2.40;1.50;;;18.90;99.90;;;;;;4936438;28;21184;-72
2021/08/03 08:18:39;;;;;;;2.00;1.00;;;19.10;99.90;;;;;;4935115;28;20219;-71
2021/08/03 08:21:05;;;;;;;1.40;1.30;;;19.00;99.90;;;;;;4933498;28;20699;-71
2021/08/03 08:23:31;;;;;;;2.43;1.20;;;19.10;99.90;;;;;;4941357;28;20643;-71
2021/08/03 08:25:58;;;;;;;1.63;1.30;;;19.20;99.90;;;;;;4937813;29;20275;-71
2021/08/03 08:28:26;;;;;;;1.60;1.20;;;19.30;99.90;;;;;;4933498;28;20671;-71
2021/08/03 08:30:52;;;;;;;1.37;1.27;;;19.30;99.90;;;;;;4932646;28;20646;-72
2021/08/03 08:33:18;;;;;;;1.13;1.03;;;19.30;99.90;;;;;;4929162;28;20706;-71
2021/08/03 08:35:43;;;;;;;2.20;1.20;;;19.20;99.90;;;;;;4929708;29;20269;-71
2021/08/03 08:38:09;;;;;;;1.20;1.20;;;19.30;99.90;;;;;;4930659;28;20699;-71
2021/08/03 08:40:35;;;;;;;1.10;1.00;;;19.40;99.90;;;;;;4935304;29;20194;-71
2021/08/03 08:43:01;;;;;;;1.13;1.00;;;19.50;99.90;;;;;;4928993;28;20282;-72
2021/08/03 08:45:30;;;;;;;0.90;0.90;;;19.60;99.90;;;;;;4932451;28;20250;-71
2021/08/03 08:47:57;;;;;;;1.80;0.90;;;19.60;99.90;;;;;;4936264;28;20245;-71
2021/08/03 08:50:25;;;;;;;1.97;1.00;;;19.80;99.90;;;;;;4938391;28;20697;-71
2021/08/03 08:52:53;;;;;;;1.30;0.90;;;19.80;99.90;;;;;;4942055;28;21249;-71
2021/08/03 08:55:20;;;;;;;1.83;1.10;;;19.90;99.90;;;;;;4933777;29;20631;-71
2021/08/03 08:57:51;;;;;;;2.80;1.30;;;19.90;99.90;;;;;;4937386;29;20647;-74
2021/08/03 09:00:19;;;;;;;1.50;1.40;;;20.00;99.90;;;;;;4936093;28;20667;-74
2021/08/03 09:02:47;;;;;;;1.47;1.20;;;19.90;99.90;;;;;;4939042;28;20646;-73
2021/08/03 09:05:15;;;;;;;1.40;1.00;;;19.80;99.90;;;;;;4937213;29;20615;-75
2021/08/03 09:07:55;;;;;;;1.20;1.10;;;19.70;99.90;;;;;;4938663;28;20639;-74
2021/08/03 09:10:28;;;;;;;1.20;1.10;;;19.80;99.90;;;;;;4957002;28;21119;-74
2021/08/03 09:13:06;;;;;;;1.33;1.00;;;19.80;99.90;;;;;;4939667;28;21043;-73
2021/08/03 09:15:37;;;;;;;1.37;1.27;;;19.80;99.90;;;;;;4937909;28;20611;-73
2021/08/03 09:18:26;;;;;;;1.20;1.10;;;20.00;99.90;;;;;;4944938;28;20655;-74
2021/08/03 09:20:52;;;;;;;1.87;1.17;;;20.10;99.90;;;;;;4941169;29;20635;-74
2021/08/03 09:23:18;;;;;;;1.27;1.17;;;20.00;99.90;;;;;;4945313;28;20657;-73
2021/08/03 09:25:55;;;;;;;1.87;1.40;;;20.10;99.90;;;;;;4942003;29;20195;-72
2021/08/03 09:28:21;;;;;;;1.27;1.17;;;20.10;99.90;;;;;;4939223;28;20611;-73
2021/08/03 09:30:47;;;;;;;1.00;1.00;;;20.10;99.90;;;;;;4940690;28;20722;-73
2021/08/03 09:33:21;;;;;;;1.23;1.13;;;20.20;99.90;;;;;;4943295;28;20258;-72
2021/08/03 09:35:46;;;;;;;1.20;1.10;;;20.30;99.90;;;;;;4941743;29;20302;-72
2021/08/03 09:38:17;;;;;;;1.40;1.30;;;20.40;99.90;;;;;;4944069;28;20685;-74
2021/08/03 09:40:45;;;;;;;1.27;1.17;;;20.50;99.90;;;;;;4944127;29;20199;-74
2021/08/03 09:43:13;;;;;;;1.97;1.20;;;20.50;99.90;;;;;;4942098;28;20632;-74
2021/08/03 09:45:42;;;;;;;1.40;1.30;;;20.60;99.90;;;;;;4938983;28;20623;-71
2021/08/03 09:48:14;;;;;;;2.40;1.20;;;20.60;99.90;;;;;;4940650;28;20738;-71
2021/08/03 09:51:00;;;;;;;1.93;1.40;;;20.60;99.90;;;;;;4937611;28;20722;-71
2021/08/03 09:53:39;;;;;;;2.43;1.47;;;20.70;99.90;;;;;;4938878;28;20642;-71
2021/08/03 09:56:06;;;;;;;1.63;1.40;;;20.80;99.90;;;;;;4939982;28;20635;-71
2021/08/03 09:58:35;;;;;;;1.40;1.30;;;20.80;99.90;;;;;;4935631;28;20674;-71
2021/08/03 10:01:22;;;;;;;1.47;1.37;;;20.90;99.90;;;;;;4940254;28;20619;-70
2021/08/03 10:03:51;;;;;;;1.73;1.30;;;21.00;99.90;;;;;;4943365;29;20713;-70
2021/08/03 10:06:21;;;;;;;1.20;1.10;;;21.00;99.90;;;;;;4945313;28;20630;-70
2021/08/03 10:08:51;;;;;;;1.23;1.13;;;21.10;99.90;;;;;;4942242;28;20762;-70
2021/08/03 10:11:17;;;;;;;1.23;1.13;;;21.20;99.90;;;;;;4939587;28;20665;-70
2021/08/03 10:13:44;;;;;;;1.70;1.30;;;21.20;99.90;;;;;;4937244;28;20615;-70
2021/08/03 10:16:10;;;;;;;2.10;1.10;;;21.30;99.90;;;;;;4940171;28;20623;-69
2021/08/03 10:18:41;;;;;;;1.30;1.20;;;21.40;99.90;;;;;;4933383;28;20666;-69
2021/08/03 10:21:08;;;;;;;2.40;1.00;;;21.40;99.90;;;;;;4937972;29;20619;-70
2021/08/03 10:23:39;;;;;;;2.03;1.50;;;21.40;99.90;;;;;;4937789;28;20742;-70
2021/08/03 10:26:15;;;;;;;1.30;1.20;;;21.50;99.90;;;;;;4933247;28;20623;-70
2021/08/03 10:28:41;;;;;;;1.40;1.30;;;21.50;99.90;;;;;;4939073;28;20741;-69
2021/08/03 10:31:36;;;;;;;1.73;1.30;;;21.50;99.90;;;;;;4930774;28;21206;-69
2021/08/03 10:34:02;;;;;;;1.20;1.10;;;21.60;99.90;;;;;;4936127;28;20650;-69
2021/08/03 10:36:45;;;;;;;2.20;1.10;;;21.80;99.90;;;;;;4932773;29;20622;-69
2021/08/03 10:39:16;;;;;;;1.20;1.00;;;21.90;99.90;;;;;;4938854;28;20215;-70
2021/08/03 10:41:59;;;;;;;1.33;1.23;;;21.90;99.90;;;;;;4947712;28;21234;-71
2021/08/03 10:44:40;;;;;;;1.10;1.10;;;22.00;99.90;;;;;;4934257;28;20619;-71
2021/08/03 10:47:34;;;;;;;1.40;1.30;;;22.00;99.90;;;;;;4940590;29;20654;-71
2021/08/03 10:50:27;;;;;;;1.20;1.20;;;21.90;99.90;;;;;;4949384;28;21101;-70
2021/08/03 10:52:54;;;;;;;1.63;1.20;;;21.90;99.90;;;;;;4941015;28;20637;-70
2021/08/03 10:55:45;;;;;;;1.40;1.30;;;21.80;99.90;;;;;;4945906;29;20646;-70
2021/08/03 10:58:13;;;;;;;1.07;0.97;;;21.80;99.90;;;;;;4949853;28;20658;-70
2021/08/03 11:01:02;;;;;;;1.90;1.27;;;21.60;99.90;;;;;;4942270;28;20619;-70
2021/08/03 11:03:33;;;;;;;3.10;1.20;;;21.60;99.90;;;;;;4948845;28;20638;-70
2021/08/03 11:06:11;;;;;;;1.20;1.10;;;21.50;99.90;;;;;;4950472;28;20615;-71
2021/08/03 11:08:40;;;;;;;1.43;1.27;;;21.50;99.90;;;;;;4943855;28;20661;-70
2021/08/03 11:11:18;;;;;;;1.30;1.20;;;21.50;99.90;;;;;;4948264;29;20671;-70
2021/08/03 11:13:49;;;;;;;2.20;1.00;;;21.40;99.90;;;;;;4946722;28;20639;-70
2021/08/03 11:16:23;;;;;;;1.27;1.20;;;21.40;99.90;;;;;;4945642;28;20638;-70
2021/08/03 11:18:57;;;;;;;2.10;1.10;;;21.40;99.90;;;;;;4944617;28;20690;-71
2021/08/03 11:21:27;;;;;;;2.83;1.40;;;21.40;99.90;;;;;;4936575;28;20642;-71
2021/08/03 11:23:56;;;;;;;1.50;1.40;;;21.40;99.90;;;;;;4947961;29;20615;-70
2021/08/03 11:26:23;;;;;;;2.03;1.20;;;21.50;99.90;;;;;;4949338;28;20623;-70
2021/08/03 11:29:00;;;;;;;1.80;1.40;;;21.50;99.90;;;;;;4947304;28;20670;-70
2021/08/03 11:31:40;;;;;;;1.17;1.07;;;21.50;99.90;;;;;;4956570;28;20642;-70
2021/08/03 11:34:08;;;;;;;1.27;1.17;;;21.40;99.90;;;;;;4946397;29;20629;-71
2021/08/03 11:36:36;;;;;;;1.80;1.37;;;21.40;99.90;;;;;;4948162;29;20619;-71
2021/08/03 11:39:18;;;;;;;1.30;1.20;;;21.40;99.90;;;;;;4941142;28;20770;-70
2021/08/03 11:41:46;;;;;;;1.30;1.20;;;21.50;99.90;;;;;;4942345;28;20642;-70
2021/08/03 11:44:15;;;;;;;1.53;1.30;;;21.60;99.90;;;;;;4947742;29;20641;-70
2021/08/03 11:46:43;;;;;;;1.83;1.20;;;21.70;99.90;;;;;;4944204;29;22647;-70
2021/08/03 11:49:10;;;;;;;2.27;1.20;;;21.70;99.90;;;;;;4947446;28;20746;-70
2021/08/03 11:51:43;;;;;;;1.37;1.23;;;21.80;99.90;;;;;;4945186;28;20666;-70
2021/08/03 11:54:14;;;;;;;1.00;1.00;;;21.80;99.90;;;;;;4961792;28;20623;-70
2021/08/03 11:56:40;;;;;;;4.40;1.30;;;21.70;99.90;;;;;;4947570;29;20714;-70
2021/08/03 11:59:06;;;;;;;1.30;1.10;;;21.80;99.90;;;;;;4945364;28;20675;-70
2021/08/03 12:01:52;;;;;;;1.20;1.10;;;21.90;99.90;;;;;;4937936;28;20632;-71
2021/08/03 12:04:23;;;;;;;1.57;1.17;;;22.00;99.90;;;;;;4937334;28;20611;-71
2021/08/03 12:06:52;;;;;;;2.33;1.43;;;21.90;99.90;;;;;;4941355;28;20595;-71
2021/08/03 12:09:19;;;;;;;1.13;1.03;;;21.90;99.90;;;;;;4932161;28;20665;-70
2021/08/03 12:11:45;;;;;;;1.10;1.10;;;21.90;99.90;;;;;;4928078;28;20713;-70
2021/08/03 12:14:14;;;;;;;1.27;1.17;;;21.80;99.90;;;;;;4939482;28;21293;-69
2021/08/03 12:16:43;;;;;;;1.83;1.37;;;21.70;99.90;;;;;;4949338;28;21239;-72
2021/08/03 12:19:31;;;;;;;1.30;1.20;;;21.70;99.90;;;;;;4937501;28;26362;-70
2021/08/03 12:21:57;;;;;;;1.30;1.20;;;21.60;99.90;;;;;;4937315;28;20639;-70
2021/08/03 12:24:24;;;;;;;1.40;0.90;;;21.60;99.90;;;;;;4936583;28;23548;-70
2021/08/03 12:27:11;;;;;;;0.87;0.87;;;21.50;99.90;;;;;;4932370;28;20638;-70
2021/08/03 12:29:37;;;;;;;1.70;1.20;;;21.50;99.90;;;;;;4933395;28;20674;-70
2021/08/03 12:32:03;;;;;;;1.50;1.40;;;21.40;99.90;;;;;;4928376;28;21037;-71
2021/08/03 12:34:36;;;;;;;1.47;1.37;;;21.50;99.90;;;;;;4928863;28;20379;-72
2021/08/03 12:37:01;;;;;;;2.40;1.30;;;21.40;99.90;;;;;;4921243;28;23321;-72
2021/08/03 12:39:41;;;;;;;1.20;1.20;;;21.40;99.90;;;;;;4951202;28;20670;-72
2021/08/03 12:42:23;;;;;;;1.60;1.50;;;21.40;99.90;;;;;;4928799;28;22792;-73
2021/08/03 12:44:53;;;;;;;1.57;1.47;;;21.40;99.90;;;;;;4935703;28;20662;-72
2021/08/03 12:47:21;;;;;;;1.90;1.30;;;21.30;99.90;;;;;;4937582;29;20638;-72
2021/08/03 12:49:48;;;;;;;1.67;1.40;;;21.30;99.90;;;;;;4939411;28;21478;-73
2021/08/03 12:52:23;;;;;;;1.33;1.23;;;21.30;99.90;;;;;;4937456;28;20649;-72
2021/08/03 12:55:01;;;;;;;1.30;1.30;;;21.30;99.90;;;;;;4942638;28;20674;-73
2021/08/03 12:57:44;;;;;;;1.07;1.00;;;21.20;99.90;;;;;;4932474;28;21066;-73
2021/08/03 13:00:31;;;;;;;1.40;1.20;;;21.20;99.90;;;;;;4938130;28;20666;-75
2021/08/03 13:02:58;;;;;;;2.87;1.40;;;21.20;99.90;;;;;;4929405;28;20725;-72